createdAt,value
2019-02-05T00:04:17.480Z,74.81
2019-02-05T00:07:20.860Z,73.95
2019-02-05T00:10:24.418Z,74.83
2019-02-05T00:13:27.804Z,75.18
2019-02-05T00:16:31.179Z,75.60
2019-02-05T00:19:36.363Z,75.11
2019-02-05T00:22:39.859Z,75.83
2019-02-05T00:26:06.388Z,75.36
2019-02-05T00:29:27.049Z,75.72
2019-02-05T00:32:30.432Z,75.66
2019-02-05T00:35:35.922Z,76.02
2019-02-05T00:38:39.299Z,75.99
2019-02-05T00:41:42.746Z,75.75
2019-02-05T00:44:46.505Z,76.13
2019-02-05T00:47:49.904Z,75.53
2019-02-05T00:50:53.406Z,75.28
2019-02-05T00:53:58.517Z,76.26
2019-02-05T00:57:02.143Z,76.06
2019-02-05T01:00:26.495Z,76.11
2019-02-05T01:03:29.897Z,75.86
2019-02-05T01:06:33.444Z,76.68
2019-02-05T01:09:36.921Z,75.16
2019-02-05T01:12:40.299Z,75.52
2019-02-05T01:15:45.489Z,75.14
2019-02-05T01:18:48.866Z,75.18
2019-02-05T01:21:52.255Z,74.58
2019-02-05T01:24:57.387Z,74.72
2019-02-05T01:28:00.751Z,74.99
2019-02-05T01:31:04.149Z,75.57
2019-02-05T01:34:09.240Z,76.59
2019-02-05T01:37:12.625Z,75.52
2019-02-05T01:40:36.816Z,75.34
2019-02-05T01:43:40.190Z,76.22
2019-02-05T01:46:45.570Z,76.08
2019-02-05T01:49:49.131Z,75.99
2019-02-05T01:52:52.810Z,75.45
2019-02-05T01:56:18.851Z,75.66
2019-02-05T01:59:22.441Z,75.66
2019-02-05T02:02:25.846Z,76.10
2019-02-05T02:05:29.551Z,75.79
2019-02-05T02:08:34.664Z,75.52
2019-02-05T02:11:38.037Z,75.34
2019-02-05T02:14:41.420Z,75.52
2019-02-05T02:17:46.855Z,75.37
2019-02-05T02:24:17.572Z,76.11
2019-02-05T02:34:00.976Z,75.43
2019-02-05T02:37:04.424Z,75.55
2019-02-05T02:40:47.728Z,75.72
2019-02-05T02:43:51.114Z,76.25
2019-02-05T02:46:54.496Z,75.63
2019-02-05T02:49:59.929Z,76.70
2019-02-05T02:53:03.368Z,76.29
2019-02-05T02:56:06.746Z,75.44
2019-02-05T02:59:10.205Z,75.47
2019-02-05T03:02:13.653Z,76.09
2019-02-05T03:05:56.943Z,75.89
2019-02-05T03:09:00.390Z,75.34
2019-02-05T03:12:23.216Z,74.97
2019-02-05T03:15:45.944Z,75.94
2019-02-05T03:18:51.035Z,74.57
2019-02-05T03:21:54.428Z,75.30
2019-02-05T03:25:36.399Z,75.48
2019-02-05T03:28:39.846Z,75.44
2019-02-05T03:31:43.269Z,74.46
2019-02-05T03:34:46.675Z,75.30
2019-02-05T03:41:19.429Z,76.82
2019-02-05T03:44:24.550Z,77.79
2019-02-05T03:47:39.573Z,78.60
2019-02-05T03:51:22.862Z,77.79
2019-02-05T03:55:06.229Z,78.58
2019-02-05T03:58:49.508Z,78.00
2019-02-05T04:02:31.485Z,78.58
2019-02-05T04:06:14.777Z,80.42
2019-02-05T04:09:56.744Z,78.72
2019-02-05T04:13:38.958Z,78.20
2019-02-05T04:17:22.566Z,78.28
2019-02-05T04:21:04.551Z,78.24
2019-02-05T04:24:46.514Z,78.71
2019-02-05T04:28:29.816Z,80.14
2019-02-05T04:32:13.510Z,77.24
2019-02-05T04:35:55.492Z,78.96
2019-02-05T04:39:38.819Z,78.30
2019-02-05T04:43:22.123Z,80.60
2019-02-05T04:47:04.084Z,79.75
2019-02-05T04:50:47.673Z,78.57
2019-02-05T04:54:31.022Z,78.79
2019-02-05T04:58:14.316Z,78.02
2019-02-05T05:01:57.660Z,78.66
2019-02-05T05:05:39.627Z,78.14
2019-02-05T05:09:22.869Z,77.88
2019-02-05T05:16:28.912Z,77.34
2019-02-05T05:20:12.205Z,77.54
2019-02-05T05:23:15.644Z,77.58
2019-02-05T05:26:19.427Z,77.00
2019-02-05T05:29:23.233Z,77.29
2019-02-05T05:32:26.620Z,78.28
2019-02-05T05:35:40.648Z,76.82
2019-02-05T05:38:35.167Z,76.95
2019-02-05T05:41:38.553Z,76.79
2019-02-05T05:44:41.940Z,77.24
2019-02-05T05:47:45.332Z,76.87
2019-02-05T05:50:48.693Z,76.42
2019-02-05T05:53:52.071Z,77.90
2019-02-05T05:56:57.190Z,76.82
2019-02-05T06:00:00.574Z,76.21
2019-02-05T06:03:03.947Z,78.14
2019-02-05T06:06:09.043Z,75.71
2019-02-05T06:09:12.506Z,75.93
2019-02-05T06:12:15.867Z,76.93
2019-02-05T06:15:20.971Z,77.22
2019-02-05T06:18:24.355Z,78.43
2019-02-05T06:21:27.740Z,76.97
2019-02-05T06:24:31.107Z,76.08
2019-02-05T06:27:34.567Z,76.93
2019-02-05T06:30:37.943Z,75.82
2019-02-05T06:33:41.323Z,76.47
2019-02-05T06:36:44.695Z,75.84
2019-02-05T06:39:48.083Z,75.38
2019-02-05T06:42:51.456Z,74.64
2019-02-05T06:45:54.845Z,76.10
2019-02-05T06:48:58.244Z,76.49
2019-02-05T06:52:01.613Z,76.14
2019-02-05T06:55:44.918Z,76.94
2019-02-05T06:58:48.285Z,77.44
2019-02-05T07:01:51.680Z,77.67
2019-02-05T07:04:55.051Z,77.92
2019-02-05T07:07:58.615Z,77.08
2019-02-05T07:11:02.228Z,77.06
2019-02-05T07:14:45.531Z,77.57
2019-02-05T07:18:08.366Z,77.53
2019-02-05T07:21:12.050Z,77.38
2019-02-05T07:24:15.402Z,77.11
2019-02-05T07:27:18.795Z,77.43
2019-02-05T07:31:03.811Z,77.58
2019-02-05T07:34:26.524Z,78.68
2019-02-05T07:37:29.925Z,79.53
2019-02-05T07:40:33.611Z,78.95
2019-02-05T07:43:56.419Z,79.22
2019-02-05T07:47:19.145Z,78.96
2019-02-05T07:51:02.429Z,79.67
2019-02-05T07:54:05.833Z,79.86
2019-02-05T07:57:10.937Z,79.88
2019-02-05T08:00:33.933Z,79.55
2019-02-05T08:03:56.628Z,78.75
2019-02-05T08:07:19.402Z,78.30
2019-02-05T08:11:02.717Z,78.66
2019-02-05T08:14:46.013Z,79.56
2019-02-05T08:17:49.467Z,78.54
2019-02-05T08:20:52.860Z,78.75
2019-02-05T08:23:58.343Z,77.81
2019-02-05T08:27:01.736Z,77.79
2019-02-05T08:30:45.016Z,77.35
2019-02-05T08:33:48.405Z,77.67
2019-02-05T08:36:51.780Z,77.09
2019-02-05T08:39:55.170Z,77.81
2019-02-05T08:42:58.559Z,77.76
2019-02-05T08:46:02.113Z,77.29
2019-02-05T08:49:24.845Z,77.67
2019-02-05T08:52:28.207Z,77.20
2019-02-05T08:55:31.967Z,78.04
2019-02-05T08:58:54.630Z,77.23
2019-02-05T09:01:58.017Z,77.43
2019-02-05T09:05:01.409Z,76.85
2019-02-05T09:08:24.121Z,77.59
2019-02-05T09:11:29.480Z,77.84
2019-02-05T09:14:32.885Z,77.23
2019-02-05T09:17:55.591Z,77.30
2019-02-05T09:20:58.968Z,76.38
2019-02-05T09:24:02.349Z,77.23
2019-02-05T09:27:05.725Z,77.22
2019-02-05T09:30:49.030Z,77.35
2019-02-05T09:33:52.421Z,77.87
2019-02-05T09:36:57.516Z,78.34
2019-02-05T09:40:00.890Z,78.05
2019-02-05T09:46:46.903Z,76.92
2019-02-05T09:50:02.507Z,75.78
2019-02-05T09:53:06.188Z,76.36
2019-02-05T09:56:09.633Z,75.55
2019-02-05T09:59:13.013Z,75.91
2019-02-05T10:02:16.415Z,75.79
2019-02-05T10:05:59.678Z,75.97
2019-02-05T10:09:03.453Z,75.76
2019-02-05T10:12:06.965Z,76.84
2019-02-05T10:15:50.456Z,76.81
2019-02-05T10:19:13.702Z,78.39
2019-02-05T10:26:00.703Z,77.22
2019-02-05T10:29:04.339Z,77.09
2019-02-05T10:32:07.780Z,77.39
2019-02-05T10:35:11.302Z,77.01
2019-02-05T10:38:35.735Z,76.96
2019-02-05T10:41:39.483Z,76.07
2019-02-05T10:45:02.234Z,75.54
2019-02-05T10:48:24.951Z,75.09
2019-02-05T10:51:28.333Z,74.23
2019-02-05T10:54:31.713Z,74.70
2019-02-05T10:57:55.426Z,74.37
2019-02-05T11:01:18.155Z,74.22
2019-02-05T11:04:21.590Z,74.76
2019-02-05T11:07:44.402Z,74.90
2019-02-05T11:10:47.774Z,75.77
2019-02-05T11:13:51.151Z,75.99
2019-02-05T11:16:55.475Z,75.27
2019-02-05T11:19:58.932Z,76.16
2019-02-05T11:23:02.385Z,75.94
2019-02-05T11:26:05.841Z,77.65
2019-02-05T11:29:09.529Z,77.49
2019-02-05T11:32:12.975Z,77.84
2019-02-05T11:35:16.506Z,78.56
2019-02-05T11:38:19.954Z,77.61
2019-02-05T11:41:23.343Z,77.66
2019-02-05T11:44:28.665Z,78.15
2019-02-05T11:47:32.048Z,78.01
2019-02-05T11:50:35.516Z,79.07
2019-02-05T11:53:38.888Z,79.69
2019-02-05T11:56:42.279Z,78.93
2019-02-05T11:59:45.798Z,80.45
2019-02-05T12:02:49.613Z,81.34
2019-02-05T12:05:52.976Z,81.79
2019-02-05T12:08:56.547Z,80.82
2019-02-05T12:12:01.816Z,80.16
2019-02-05T12:15:08.563Z,80.05
2019-02-05T12:18:11.959Z,79.09
2019-02-05T12:21:15.723Z,79.24
2019-02-05T12:24:27.178Z,78.55
2019-02-05T12:27:30.563Z,79.00
2019-02-05T12:30:44.552Z,78.33
2019-02-05T12:33:41.565Z,77.32
2019-02-05T12:36:44.962Z,77.51
2019-02-05T12:39:48.641Z,77.15
2019-02-05T12:42:52.398Z,76.69
2019-02-05T12:45:55.784Z,76.75
2019-02-05T12:48:59.632Z,76.79
2019-02-05T12:52:03.017Z,77.03
2019-02-05T12:55:13.358Z,77.58
2019-02-05T12:58:14.638Z,77.67
2019-02-05T13:01:18.043Z,78.94
2019-02-05T13:04:22.331Z,80.01
2019-02-05T13:07:25.894Z,79.85
2019-02-05T13:10:32.047Z,79.65
2019-02-05T13:13:35.509Z,78.15
2019-02-05T13:16:39.127Z,78.24
2019-02-05T13:19:42.504Z,77.63
2019-02-05T13:22:46.398Z,77.48
2019-02-05T13:25:50.034Z,77.45
2019-02-05T13:28:53.409Z,77.16
2019-02-05T13:31:58.761Z,76.46
2019-02-05T13:35:02.390Z,77.48
2019-02-05T13:38:06.208Z,76.99
2019-02-05T13:41:09.648Z,76.70
2019-02-05T13:44:13.070Z,76.74
2019-02-05T13:47:16.440Z,76.66
2019-02-05T13:50:33.043Z,77.78
2019-02-05T13:53:32.631Z,77.31
2019-02-05T13:56:37.047Z,77.13
2019-02-05T13:59:40.419Z,76.80
2019-02-05T14:02:43.798Z,75.98
2019-02-05T14:05:47.357Z,76.84
2019-02-05T14:08:50.767Z,76.79
2019-02-05T14:11:54.243Z,76.39
2019-02-05T14:14:57.598Z,76.57
2019-02-05T14:18:00.972Z,77.60
2019-02-05T14:21:04.493Z,76.11
2019-02-05T14:24:08.208Z,75.17
2019-02-05T14:27:11.725Z,75.14
2019-02-05T14:30:36.143Z,75.54
2019-02-05T14:33:39.833Z,74.21
2019-02-05T14:36:43.288Z,75.02
2019-02-05T14:39:49.074Z,74.48
2019-02-05T14:42:54.307Z,73.10
2019-02-05T14:45:57.695Z,72.79
2019-02-05T14:49:01.069Z,73.29
2019-02-05T14:52:04.706Z,72.56
2019-02-05T14:55:08.079Z,72.66
2019-02-05T14:58:12.405Z,72.80
2019-02-05T15:01:16.053Z,72.88
2019-02-05T15:04:19.672Z,73.19
2019-02-05T15:07:23.155Z,72.60
2019-02-05T15:10:26.796Z,72.85
2019-02-05T15:13:30.185Z,73.10
2019-02-05T15:16:33.574Z,73.55
2019-02-05T15:19:36.957Z,73.57
2019-02-05T15:22:40.337Z,72.98
2019-02-05T15:25:43.961Z,72.75
2019-02-05T15:28:48.505Z,72.67
2019-02-05T15:31:54.618Z,72.86
2019-02-05T15:34:57.240Z,72.70
2019-02-05T15:38:00.696Z,73.57
2019-02-05T15:41:04.217Z,73.08
2019-02-05T15:44:07.667Z,73.53
2019-02-05T15:47:11.055Z,73.07
2019-02-05T15:50:14.979Z,73.01
2019-02-05T15:53:18.370Z,73.36
2019-02-05T15:56:21.899Z,73.08
2019-02-05T15:59:25.276Z,73.01
2019-02-05T16:02:28.674Z,73.74
2019-02-05T16:05:32.242Z,73.07
2019-02-05T16:08:42.403Z,73.28
2019-02-05T16:11:45.798Z,72.92
2019-02-05T16:14:49.174Z,73.22
2019-02-05T16:17:54.555Z,72.43
2019-02-05T16:20:57.941Z,72.62
2019-02-05T16:24:01.422Z,72.99
2019-02-05T16:27:05.068Z,73.29
2019-02-05T16:30:23.062Z,72.47
2019-02-05T16:33:26.489Z,72.48
2019-02-05T16:36:29.886Z,72.33
2019-02-05T16:39:33.255Z,72.96
2019-02-05T16:42:36.918Z,73.24
2019-02-05T16:45:40.363Z,72.89
2019-02-05T16:48:43.771Z,72.90
2019-02-05T16:51:47.190Z,73.35
2019-02-05T16:54:50.576Z,73.39
2019-02-05T16:57:53.970Z,72.73
2019-02-05T17:05:17.494Z,72.38
2019-02-05T17:08:20.886Z,73.03
2019-02-05T17:11:25.268Z,72.87
2019-02-05T17:14:28.856Z,72.74
2019-02-05T17:17:32.266Z,72.70
2019-02-05T17:20:55.009Z,73.41
2019-02-05T17:23:58.396Z,72.52
2019-02-05T17:27:01.806Z,72.91
2019-02-05T17:30:45.410Z,73.45
2019-02-05T17:33:48.815Z,73.08
2019-02-05T17:36:52.487Z,73.42
2019-02-05T17:40:16.165Z,73.64
2019-02-05T17:43:19.564Z,73.93
2019-02-05T17:46:23.289Z,73.30
2019-02-05T17:49:26.682Z,74.02
2019-02-05T17:52:30.080Z,73.96
2019-02-05T17:55:33.888Z,74.72
2019-02-05T17:58:37.295Z,75.22
2019-02-05T18:01:40.848Z,74.83
2019-02-05T18:04:44.478Z,75.27
2019-02-05T18:07:48.331Z,75.78
2019-02-05T18:10:51.972Z,76.00
2019-02-05T18:13:55.393Z,75.38
2019-02-05T18:16:58.788Z,76.19
2019-02-05T18:20:02.595Z,76.07
2019-02-05T18:23:06.345Z,75.61
2019-02-05T18:26:10.155Z,76.37
2019-02-05T18:29:15.318Z,76.41
2019-02-05T18:32:19.102Z,76.70
2019-02-05T18:35:22.507Z,75.98
2019-02-05T18:38:26.626Z,76.31
2019-02-05T18:41:30.122Z,75.81
2019-02-05T18:44:52.868Z,76.04
2019-02-05T18:47:56.686Z,75.58
2019-02-05T18:51:01.801Z,75.95
2019-02-05T18:54:45.142Z,76.15
2019-02-05T18:57:48.541Z,76.10
2019-02-05T19:00:52.266Z,76.35
2019-02-05T19:03:55.651Z,75.99
2019-02-05T19:06:59.063Z,76.27
2019-02-05T19:10:02.880Z,76.03
2019-02-05T19:13:06.419Z,75.93
2019-02-05T19:16:10.191Z,75.51
2019-02-05T19:19:15.291Z,76.70
2019-02-05T19:22:38.313Z,76.32
2019-02-05T19:26:00.831Z,75.93
2019-02-05T19:29:18.819Z,75.98
2019-02-05T19:36:01.725Z,75.80
2019-02-05T19:39:45.272Z,75.07
2019-02-05T19:42:48.844Z,75.20
2019-02-05T19:46:11.634Z,75.95
2019-02-05T19:49:34.137Z,76.20
2019-02-05T19:52:37.537Z,77.24
2019-02-05T19:55:40.936Z,76.96
2019-02-05T19:58:44.331Z,76.78
2019-02-05T20:01:48.181Z,76.62
2019-02-05T20:05:11.798Z,77.59
2019-02-05T20:08:15.201Z,77.37
2019-02-05T20:11:38.217Z,77.92
2019-02-05T20:15:00.959Z,77.66
2019-02-05T20:18:04.688Z,77.63
2019-02-05T20:21:31.950Z,78.34
2019-02-05T20:24:53.622Z,79.15
2019-02-05T20:27:57.035Z,79.75
2019-02-05T20:31:00.439Z,80.33
2019-02-05T20:37:46.968Z,80.17
2019-02-05T20:40:50.446Z,80.20
2019-02-05T20:43:53.838Z,80.39
2019-02-05T20:46:57.247Z,79.98
2019-02-05T20:50:02.353Z,80.95
2019-02-05T20:53:13.506Z,80.58
2019-02-05T20:56:11.360Z,80.36
2019-02-05T20:59:15.185Z,80.98
2019-02-05T21:02:18.592Z,80.56
2019-02-05T21:05:41.299Z,80.16
2019-02-05T21:08:44.699Z,81.53
2019-02-05T21:12:07.555Z,81.82
2019-02-05T21:15:31.685Z,80.85
2019-02-05T21:18:35.362Z,81.59
2019-02-05T21:21:38.746Z,81.78
2019-02-05T21:24:42.432Z,82.16
2019-02-05T21:28:25.752Z,82.62
2019-02-05T21:31:48.479Z,82.82
2019-02-05T21:34:51.896Z,82.77
2019-02-05T21:37:55.705Z,83.16
2019-02-05T21:41:18.528Z,82.92
2019-02-05T21:44:22.106Z,84.51
2019-02-05T21:47:44.844Z,83.79
2019-02-05T21:50:48.231Z,83.73
2019-02-05T21:57:21.158Z,83.49
2019-02-05T22:00:43.883Z,84.80
2019-02-05T22:03:47.586Z,84.60
2019-02-05T22:06:51.331Z,85.55
2019-02-05T22:10:14.198Z,85.06
2019-02-05T22:13:19.597Z,85.46
2019-02-05T22:16:23.308Z,84.52
2019-02-05T22:19:27.017Z,84.67
2019-02-05T22:22:49.833Z,84.22
2019-02-05T22:25:53.504Z,83.38
2019-02-05T22:28:56.913Z,83.92
2019-02-05T22:32:00.308Z,82.76
2019-02-05T22:38:53.845Z,82.03
2019-02-05T22:41:58.964Z,83.65
2019-02-05T22:45:02.369Z,81.67
2019-02-05T22:48:45.674Z,81.96
2019-02-05T22:51:49.071Z,84.34
2019-02-05T22:54:52.706Z,83.38
2019-02-05T22:57:56.114Z,83.80
2019-02-05T23:01:39.420Z,83.82
2019-02-05T23:05:22.743Z,83.74
2019-02-05T23:08:26.457Z,84.07
2019-02-05T23:12:08.466Z,84.63
2019-02-05T23:15:52.026Z,85.67
2019-02-05T23:18:55.525Z,86.21
2019-02-05T23:21:58.911Z,87.04
2019-02-05T23:25:02.478Z,86.63
2019-02-05T23:28:06.029Z,87.19
2019-02-05T23:31:09.432Z,86.51
2019-02-05T23:34:12.834Z,87.24
2019-02-05T23:37:16.221Z,87.32
2019-02-05T23:40:19.897Z,87.55
2019-02-05T23:43:23.342Z,87.36
2019-02-05T23:46:26.745Z,86.88
2019-02-05T23:49:31.605Z,86.10
2019-02-05T23:52:35.241Z,85.90
2019-02-05T23:55:38.828Z,85.53
2019-02-05T23:58:42.228Z,85.51
